createdAt,value
2018-11-22T12:16:37.841Z,2.60
2018-11-22T12:19:05.269Z,2.70
2018-11-22T12:21:32.642Z,2.80
2018-11-22T12:24:00.214Z,2.80
2018-11-22T12:26:27.930Z,2.80
2018-11-22T12:28:55.362Z,2.80
2018-11-22T12:31:22.711Z,2.70
2018-11-22T12:33:55.718Z,2.70
2018-11-22T12:36:24.992Z,2.50
2018-11-22T12:38:52.439Z,2.60
2018-11-22T12:41:19.984Z,2.70
2018-11-22T12:43:47.391Z,2.70
2018-11-22T12:46:14.818Z,2.80
2018-11-22T12:48:42.585Z,2.80
2018-11-22T12:51:10.043Z,2.60
2018-11-22T12:53:37.403Z,2.60
2018-11-22T12:56:04.907Z,2.50
2018-11-22T12:58:32.279Z,2.30
2018-11-22T13:00:59.715Z,2.50
2018-11-22T13:03:27.310Z,2.50
2018-11-22T13:05:54.711Z,2.50
2018-11-22T13:08:22.386Z,2.60
2018-11-22T13:10:49.930Z,2.50
2018-11-22T13:13:17.361Z,2.60
2018-11-22T13:15:44.779Z,2.40
2018-11-22T13:18:12.122Z,2.40
2018-11-22T13:20:39.553Z,2.60
2018-11-22T13:23:06.961Z,2.60
2018-11-22T13:25:34.443Z,2.60
2018-11-22T13:28:01.800Z,2.50
2018-11-22T13:30:29.325Z,2.60
2018-11-22T13:32:57.340Z,2.70
2018-11-22T13:35:24.705Z,2.50
2018-11-22T13:37:53.251Z,2.40
2018-11-22T13:40:20.593Z,2.30
2018-11-22T13:42:49.100Z,2.50
2018-11-22T13:45:19.144Z,2.40
2018-11-22T13:47:47.366Z,2.50
2018-11-22T13:50:17.319Z,2.40
2018-11-22T13:52:45.822Z,2.30
2018-11-22T13:55:13.414Z,2.30
2018-11-22T13:57:40.895Z,2.20
2018-11-22T14:00:15.594Z,2.40
2018-11-22T14:02:43.101Z,2.30
2018-11-22T14:05:11.649Z,2.40
2018-11-22T14:07:38.027Z,2.40
2018-11-22T14:10:07.601Z,2.40
2018-11-22T14:12:35.067Z,2.40
2018-11-22T14:15:02.622Z,2.50
2018-11-22T14:17:29.984Z,2.20
2018-11-22T14:19:57.408Z,2.30
2018-11-22T14:22:24.767Z,2.30
2018-11-22T14:24:52.160Z,2.20
2018-11-22T14:27:19.927Z,2.10
2018-11-22T14:29:47.411Z,2.20
2018-11-22T14:32:14.830Z,2.30
2018-11-22T14:34:42.251Z,2.30
2018-11-22T14:37:09.631Z,2.20
2018-11-22T14:39:36.997Z,2.20
2018-11-22T14:42:04.703Z,2.10
2018-11-22T14:44:32.091Z,2.10
2018-11-22T14:46:59.502Z,2.10
2018-11-22T14:49:26.923Z,2.20
2018-11-22T14:51:55.166Z,2.00
2018-11-22T14:54:22.627Z,2.10
2018-11-22T14:56:49.987Z,2.10
2018-11-22T14:59:17.398Z,2.10
2018-11-22T15:01:44.883Z,2.10
2018-11-22T15:04:12.295Z,2.10
2018-11-22T15:06:39.637Z,2.30
2018-11-22T15:09:08.119Z,2.20
2018-11-22T15:11:35.531Z,2.00
2018-11-22T15:14:03.079Z,2.10
2018-11-22T15:16:30.660Z,1.90
2018-11-22T15:18:58.039Z,1.90
2018-11-22T15:21:25.451Z,2.00
2018-11-22T15:23:52.955Z,2.20
2018-11-22T15:26:20.352Z,2.20
2018-11-22T15:28:47.718Z,2.20
2018-11-22T15:31:15.134Z,2.00
2018-11-22T15:33:42.550Z,2.10
2018-11-22T15:36:10.016Z,1.90
2018-11-22T15:38:37.429Z,2.00
2018-11-22T15:41:05.038Z,1.90
2018-11-22T15:43:32.386Z,1.90
2018-11-22T15:45:59.807Z,2.30
2018-11-22T15:48:27.227Z,2.20
2018-11-22T15:50:54.606Z,2.10
2018-11-22T15:53:22.028Z,2.10
2018-11-22T15:55:49.524Z,2.20
2018-11-22T15:58:16.974Z,2.20
2018-11-22T16:00:44.400Z,2.10
2018-11-22T16:03:11.805Z,2.00
2018-11-22T16:05:39.246Z,1.90
2018-11-22T16:08:06.646Z,2.00
2018-11-22T16:10:35.288Z,2.10
2018-11-22T16:13:11.282Z,2.10
2018-11-22T16:15:41.962Z,2.10
2018-11-22T16:18:09.408Z,2.20
2018-11-22T16:20:36.959Z,2.10
2018-11-22T16:23:04.855Z,2.20
2018-11-22T16:25:32.303Z,2.10
2018-11-22T16:27:59.826Z,2.10
2018-11-22T16:30:33.626Z,2.10
2018-11-22T16:33:01.047Z,2.10
2018-11-22T16:35:33.244Z,2.10
2018-11-22T16:37:56.322Z,1.90
2018-11-22T16:40:25.092Z,1.90
2018-11-22T16:42:53.324Z,1.80
2018-11-22T16:45:24.913Z,1.80
2018-11-22T16:47:52.348Z,2.00
2018-11-22T16:50:21.206Z,2.00
2018-11-22T16:52:48.751Z,2.20
2018-11-22T16:55:16.528Z,2.20
2018-11-22T16:57:45.090Z,2.30
2018-11-22T17:00:17.168Z,2.00
2018-11-22T17:02:45.240Z,1.80
2018-11-22T17:05:12.890Z,1.90
2018-11-22T17:07:40.299Z,1.80
2018-11-22T17:10:09.260Z,1.80
2018-11-22T17:12:36.702Z,1.90
2018-11-22T17:15:05.706Z,1.80
2018-11-22T17:17:33.139Z,2.10
2018-11-22T17:20:00.515Z,1.90
2018-11-22T17:22:27.930Z,2.00
2018-11-22T17:24:55.320Z,2.20
2018-11-22T17:27:22.678Z,2.20
2018-11-22T17:29:50.095Z,2.10
2018-11-22T17:32:17.501Z,2.20
2018-11-22T17:34:44.857Z,2.10
2018-11-22T17:37:12.284Z,2.00
2018-11-22T17:39:39.683Z,1.90
2018-11-22T17:42:07.146Z,1.90
2018-11-22T17:44:34.568Z,2.00
2018-11-22T17:47:01.928Z,2.10
2018-11-22T17:49:29.345Z,2.10
2018-11-22T17:51:56.762Z,2.00
2018-11-22T17:54:24.133Z,2.00
2018-11-22T17:56:51.561Z,2.00
2018-11-22T17:59:19.074Z,2.00
2018-11-22T18:01:46.511Z,2.20
2018-11-22T18:04:13.919Z,2.20
2018-11-22T18:06:41.338Z,2.20
2018-11-22T18:09:09.345Z,2.20
2018-11-22T18:11:36.731Z,2.30
2018-11-22T18:14:04.943Z,2.30
2018-11-22T18:16:32.343Z,2.30
2018-11-22T18:18:59.718Z,2.20
2018-11-22T18:21:27.163Z,2.10
2018-11-22T18:23:54.531Z,2.00
2018-11-22T18:26:21.890Z,2.10
2018-11-22T18:28:49.277Z,1.90
2018-11-22T18:31:16.730Z,2.10
2018-11-22T18:33:44.131Z,2.20
2018-11-22T18:36:17.586Z,2.30
2018-11-22T18:38:44.964Z,2.10
2018-11-22T18:41:12.487Z,2.10
2018-11-22T18:43:39.985Z,2.20
2018-11-22T18:46:07.459Z,2.20
2018-11-22T18:48:34.850Z,2.00
2018-11-22T18:51:02.208Z,2.20
2018-11-22T18:53:29.606Z,2.10
2018-11-22T18:55:56.963Z,2.10
2018-11-22T18:58:24.493Z,2.20
2018-11-22T19:00:51.858Z,2.20
2018-11-22T19:03:23.504Z,2.20
2018-11-22T19:05:50.918Z,2.20
2018-11-22T19:08:18.379Z,2.20
2018-11-22T19:10:45.806Z,2.10
2018-11-22T19:13:13.848Z,2.10
2018-11-22T19:15:42.771Z,2.10
2018-11-22T19:18:10.794Z,2.10
2018-11-22T19:20:39.653Z,2.00
2018-11-22T19:23:08.155Z,2.10
2018-11-22T19:25:35.621Z,2.30
2018-11-22T19:28:03.668Z,2.20
2018-11-22T19:30:37.138Z,2.20
2018-11-22T19:33:01.158Z,2.10
2018-11-22T19:35:29.973Z,2.40
2018-11-22T19:37:57.467Z,2.30
2018-11-22T19:40:28.091Z,2.10
2018-11-22T19:42:57.119Z,2.00
2018-11-22T19:45:25.975Z,2.20
2018-11-22T19:47:53.355Z,2.30
2018-11-22T19:50:22.081Z,2.10
2018-11-22T19:52:50.195Z,2.20
2018-11-22T19:55:19.951Z,2.10
2018-11-22T19:57:49.912Z,2.10
2018-11-22T20:00:18.863Z,2.10
2018-11-22T20:02:46.615Z,2.10
2018-11-22T20:05:15.126Z,2.30
2018-11-22T20:07:43.471Z,2.30
2018-11-22T20:10:14.882Z,2.30
2018-11-22T20:12:42.615Z,2.10
2018-11-22T20:15:10.312Z,2.20
2018-11-22T20:17:37.881Z,2.30
2018-11-22T20:20:06.746Z,2.10
2018-11-22T20:22:34.174Z,2.10
2018-11-22T20:25:01.632Z,2.00
2018-11-22T20:27:29.064Z,2.10
2018-11-22T20:29:56.556Z,2.10
2018-11-22T20:32:24.295Z,2.10
2018-11-22T20:34:51.782Z,2.20
2018-11-22T20:37:19.160Z,2.30
2018-11-22T20:39:46.530Z,2.30
2018-11-22T20:42:13.955Z,2.20
2018-11-22T20:44:41.298Z,2.30
2018-11-22T20:47:08.716Z,2.20
2018-11-22T20:49:36.082Z,2.00
2018-11-22T20:52:03.529Z,2.00
2018-11-22T20:54:30.943Z,2.00
2018-11-22T20:56:58.348Z,1.90
2018-11-22T20:59:25.819Z,2.20
2018-11-22T21:01:53.185Z,2.10
2018-11-22T21:04:20.652Z,2.00
2018-11-22T21:06:48.007Z,2.10
2018-11-22T21:09:15.590Z,2.10
2018-11-22T21:11:43.509Z,2.20
2018-11-22T21:14:10.452Z,2.30
2018-11-22T21:16:38.203Z,2.40
2018-11-22T21:19:06.121Z,2.10
2018-11-22T21:21:33.602Z,2.10
2018-11-22T21:24:00.991Z,2.00
2018-11-22T21:26:28.420Z,2.10
2018-11-22T21:28:55.962Z,2.00
2018-11-22T21:31:23.401Z,2.00
2018-11-22T21:33:51.009Z,2.00
2018-11-22T21:36:18.403Z,2.30
2018-11-22T21:38:45.788Z,2.30
2018-11-22T21:41:13.317Z,2.20
2018-11-22T21:43:40.674Z,2.20
2018-11-22T21:46:08.263Z,2.20
2018-11-22T21:48:35.758Z,2.10
2018-11-22T21:51:03.231Z,2.10
2018-11-22T21:53:30.709Z,1.90
2018-11-22T21:55:58.177Z,2.00
2018-11-22T21:58:25.665Z,2.10
2018-11-22T22:00:53.117Z,1.90
2018-11-22T22:03:20.566Z,2.00
2018-11-22T22:05:47.968Z,2.00
2018-11-22T22:08:15.669Z,1.90
2018-11-22T22:10:43.123Z,2.00
2018-11-22T22:13:10.567Z,2.10
2018-11-22T22:15:38.248Z,2.00
2018-11-22T22:18:06.808Z,2.10
2018-11-22T22:20:35.203Z,2.20
2018-11-22T22:23:02.852Z,2.10
2018-11-22T22:25:30.389Z,2.00
2018-11-22T22:27:58.199Z,2.00
2018-11-22T22:30:27.041Z,1.90
2018-11-22T22:32:55.790Z,2.00
2018-11-22T22:35:23.187Z,2.10
2018-11-22T22:37:50.771Z,2.20
2018-11-22T22:40:22.353Z,2.10
2018-11-22T22:42:50.714Z,2.10
2018-11-22T22:45:19.255Z,2.00
2018-11-22T22:47:47.591Z,2.00
2018-11-22T22:50:16.321Z,2.10
2018-11-22T22:52:44.139Z,2.00
2018-11-22T22:55:11.987Z,2.00
2018-11-22T22:57:40.083Z,2.00
2018-11-22T23:00:16.428Z,1.90
2018-11-22T23:02:43.829Z,1.90
2018-11-22T23:05:11.363Z,2.00
2018-11-22T23:07:38.914Z,1.80
2018-11-22T23:10:06.491Z,2.00
2018-11-22T23:12:35.421Z,2.10
2018-11-22T23:15:04.466Z,1.90
2018-11-22T23:17:31.852Z,2.00
2018-11-22T23:19:59.263Z,1.90
2018-11-22T23:22:26.638Z,2.00
2018-11-22T23:24:54.049Z,1.80
2018-11-22T23:27:21.485Z,1.80
2018-11-22T23:29:48.934Z,1.90
2018-11-22T23:32:16.354Z,1.90
2018-11-22T23:34:43.712Z,1.90
2018-11-22T23:37:11.170Z,2.00
2018-11-22T23:39:38.557Z,2.00
2018-11-22T23:42:06.001Z,1.90
2018-11-22T23:44:33.396Z,2.00
2018-11-22T23:47:00.849Z,1.90
2018-11-22T23:49:28.256Z,1.80
2018-11-22T23:51:55.647Z,1.90
2018-11-22T23:54:23.096Z,1.90
2018-11-22T23:56:50.485Z,1.90
2018-11-22T23:59:17.875Z,1.90
